Time;durP1;ratioP1;P1;durP2;ratioP2;P2;SDS_P1;SDS_P2;PMS_P1;PMS_P2;Temp;Humidity;BMP_temperature;BMP_pressure;BME280_temperature;BME280_humidity;BME280_pressure;Samples;Min_cycle;Max_cycle;Signal;HPM_P1;HPM_P2
2022/01/12 00:00:10;;;;;;;2.17;1.58;;;;;;;17.72;21.56;100484.81;5160621;27;20026;-69
2022/01/12 00:02:35;;;;;;;1.95;1.30;;;;;;;17.73;21.53;100484.66;5154423;27;20065;-70
2022/01/12 00:05:01;;;;;;;1.42;1.30;;;;;;;17.76;21.44;100484.38;5154937;27;20350;-69
2022/01/12 00:07:26;;;;;;;2.88;1.42;;;;;;;17.77;21.66;100480.69;5152074;27;20045;-70
2022/01/12 00:09:52;;;;;;;2.70;1.50;;;;;;;17.78;21.34;100479.72;5154147;27;20036;-70
2022/01/12 00:12:17;;;;;;;2.22;1.13;;;;;;;17.81;21.39;100486.59;5154709;27;20401;-70
2022/01/12 00:14:43;;;;;;;2.03;1.27;;;;;;;17.83;21.59;100490.00;5156377;27;20243;-70
2022/01/12 00:17:08;;;;;;;1.92;1.30;;;;;;;17.83;21.58;100503.38;5160473;27;20496;-70
2022/01/12 00:19:34;;;;;;;4.38;1.33;;;;;;;17.84;21.78;100497.88;5154116;27;20022;-71
2022/01/12 00:22:00;;;;;;;1.70;1.10;;;;;;;17.85;21.50;100494.19;5154038;27;20038;-71
2022/01/12 00:24:28;;;;;;;1.98;1.20;;;;;;;17.85;21.43;100498.72;5154814;27;20042;-71
2022/01/12 00:35:07;;;;;;;5.25;0.95;;;;;;;17.84;21.33;100497.03;5169913;27;20117;-70
2022/01/12 00:37:32;;;;;;;1.48;1.02;;;;;;;17.84;21.19;100497.88;5154102;27;20031;-70
2022/01/12 00:39:58;;;;;;;1.52;0.93;;;;;;;17.84;21.25;100492.50;5153875;27;20061;-70
2022/01/12 00:42:28;;;;;;;1.90;1.15;;;;;;;17.86;21.17;100492.38;5153458;27;20022;-69
2022/01/12 00:44:54;;;;;;;2.17;1.10;;;;;;;17.85;21.23;100493.38;5154547;27;20039;-68
2022/01/12 00:47:20;;;;;;;1.48;1.35;;;;;;;17.86;20.97;100489.69;5153960;27;20030;-69
2022/01/12 00:49:46;;;;;;;4.93;1.20;;;;;;;17.87;21.32;100491.38;5153587;27;20030;-70
2022/01/12 00:52:11;;;;;;;3.60;1.20;;;;;;;17.85;20.91;100488.00;5164316;27;20515;-70
2022/01/12 00:54:38;;;;;;;1.77;1.40;;;;;;;17.85;20.96;100483.50;5158695;27;20034;-69
2022/01/12 00:57:04;;;;;;;1.52;1.08;;;;;;;17.83;21.28;100485.47;5151456;27;20355;-68
2022/01/12 00:59:30;;;;;;;2.03;1.33;;;;;;;17.83;20.96;100485.47;5174488;27;20479;-70
2022/01/12 01:01:56;;;;;;;2.83;1.17;;;;;;;17.84;21.11;100492.50;5157528;27;20145;-69
2022/01/12 01:04:21;;;;;;;1.65;1.10;;;;;;;17.87;21.29;100483.31;5154341;27;20034;-70
2022/01/12 01:06:47;;;;;;;1.98;1.40;;;;;;;17.89;21.01;100483.19;5154434;27;20411;-66
2022/01/12 01:09:12;;;;;;;2.13;1.27;;;;;;;17.90;21.16;100475.00;5148899;27;20037;-63
2022/01/12 01:11:38;;;;;;;1.48;1.10;;;;;;;17.93;21.17;100480.09;5153934;27;20031;-62
2022/01/12 01:14:14;;;;;;;4.22;1.40;;;;;;;17.95;21.32;100483.47;5153517;27;20033;-64
2022/01/12 01:27:17;;;;;;;1.95;1.00;;;;;;;17.99;21.12;100489.41;5153908;27;20034;-63
2022/01/12 01:29:43;;;;;;;2.22;1.10;;;;;;;17.99;21.07;100484.91;5169333;27;20034;-64
2022/01/12 01:32:11;;;;;;;1.63;1.08;;;;;;;17.99;20.87;100487.56;5176086;27;20026;-63
2022/01/12 01:34:43;;;;;;;1.23;1.00;;;;;;;18.01;21.17;100486.59;5178758;27;20137;-64
2022/01/12 01:37:08;;;;;;;1.73;1.17;;;;;;;17.97;20.76;100494.91;5178750;27;20518;-64
2022/01/12 01:39:34;;;;;;;1.83;1.20;;;;;;;17.98;20.52;100480.53;5160833;27;20117;-63
2022/01/12 01:42:06;;;;;;;1.60;1.13;;;;;;;17.96;20.80;100482.47;5138461;27;20070;-63
2022/01/12 01:55:11;;;;;;;2.55;1.00;;;;;;;17.86;20.43;100470.97;5142974;27;20030;-64
2022/01/12 01:57:38;;;;;;;2.53;1.38;;;;;;;17.87;20.23;100463.75;5153416;27;20036;-67
2022/01/12 02:00:08;;;;;;;3.97;1.35;;;;;;;17.87;20.36;100466.44;5172698;27;20508;-70
2022/01/12 02:02:33;;;;;;;4.00;1.27;;;;;;;17.87;20.51;100461.91;5178141;27;20082;-67
2022/01/12 02:04:59;;;;;;;2.45;1.05;;;;;;;17.89;20.50;100467.97;5178529;27;20076;-67
2022/01/12 02:07:24;;;;;;;11.32;1.48;;;;;;;17.87;20.25;100461.91;5178666;27;20133;-68
2022/01/12 02:09:50;;;;;;;2.13;1.27;;;;;;;17.86;20.25;100470.97;5159494;27;20027;-67
2022/01/12 02:12:28;;;;;;;2.90;1.50;;;;;;;17.83;20.60;100457.88;5156971;27;20496;-67
2022/01/12 02:14:55;;;;;;;1.88;1.10;;;;;;;17.83;20.25;100452.50;5157431;27;20033;-67
2022/01/12 02:17:25;;;;;;;2.00;1.30;;;;;;;17.84;20.27;100456.88;5157187;27;20031;-67
2022/01/12 02:36:23;;;;;;;2.80;1.10;;;;;;;17.74;20.09;100432.81;5157550;27;20038;-67
2022/01/12 02:41:33;;;;;;;2.00;1.20;;;;;;;17.74;20.30;100443.50;5157427;27;20042;-67
2022/01/12 02:54:51;;;;;;;3.22;1.30;;;;;;;17.77;20.41;100434.34;5156634;27;20198;-67
2022/01/12 02:57:17;;;;;;;2.97;1.40;;;;;;;17.78;20.13;100434.22;5156648;27;20397;-67
2022/01/12 03:00:08;;;;;;;1.98;1.40;;;;;;;17.79;20.12;100425.16;5156322;27;20117;-67
2022/01/12 03:02:37;;;;;;;1.88;1.30;;;;;;;17.77;19.87;100421.81;5140164;27;20043;-67
2022/01/12 03:05:30;;;;;;;2.30;1.40;;;;;;;17.76;19.99;100421.94;5156355;27;20031;-67
2022/01/12 03:08:01;;;;;;;2.05;1.55;;;;;;;17.74;20.13;100423.91;5156471;27;20031;-67
2022/01/12 03:10:27;;;;;;;2.38;1.55;;;;;;;17.73;19.87;100422.22;5156222;27;20037;-66
2022/01/12 03:12:53;;;;;;;1.98;1.20;;;;;;;17.73;20.26;100424.91;5155616;27;20031;-66
2022/01/12 03:15:18;;;;;;;2.53;1.30;;;;;;;17.72;19.94;100424.06;5156485;27;20031;-67
2022/01/12 03:17:44;;;;;;;2.20;1.45;;;;;;;17.69;19.87;100419.00;5155667;27;20034;-67
2022/01/12 03:20:10;;;;;;;2.13;1.30;;;;;;;17.70;19.98;100420.69;5156078;27;20022;-68
2022/01/12 03:22:36;;;;;;;2.33;1.40;;;;;;;17.71;19.74;100419.72;5155901;27;20038;-67
2022/01/12 03:25:02;;;;;;;2.33;1.58;;;;;;;17.69;19.89;100419.88;5156182;27;20023;-66
2022/01/12 03:27:29;;;;;;;2.20;1.45;;;;;;;17.69;19.88;100419.88;5155673;27;20030;-67
2022/01/12 03:29:56;;;;;;;1.92;1.52;;;;;;;17.67;19.52;100429.88;5155872;27;20026;-67
2022/01/12 03:32:40;;;;;;;1.95;1.52;;;;;;;17.64;19.70;100424.81;5155854;27;20122;-66
2022/01/12 03:35:22;;;;;;;2.55;1.70;;;;;;;17.63;19.59;100417.75;5156089;27;20431;-66
2022/01/12 03:38:19;;;;;;;2.45;1.52;;;;;;;17.61;19.75;100416.22;5155185;27;20046;-66
2022/01/12 03:40:39;;;;;;;2.50;1.48;;;;;;;17.63;20.06;100425.78;5155383;27;20481;-66
2022/01/12 03:43:05;;;;;;;2.35;1.48;;;;;;;17.65;20.08;100422.97;5155193;27;20038;-65
2022/01/12 03:45:30;;;;;;;2.35;1.42;;;;;;;17.64;19.98;100414.09;5155749;27;20037;-66
2022/01/12 03:47:56;;;;;;;2.33;1.58;;;;;;;17.64;19.91;100410.59;5154983;27;20549;-66
2022/01/12 03:50:21;;;;;;;2.85;1.50;;;;;;;17.65;19.86;100413.13;5155727;27;20121;-66
2022/01/12 03:52:47;;;;;;;3.38;1.80;;;;;;;17.66;19.95;100413.94;5155349;27;20026;-65
2022/01/12 03:55:12;;;;;;;2.58;1.85;;;;;;;17.65;19.84;100418.47;5154502;27;20133;-65
2022/01/12 03:57:38;;;;;;;2.17;1.60;;;;;;;17.65;20.09;100418.47;5155099;27;20026;-66
2022/01/12 04:00:04;;;;;;;2.50;1.63;;;;;;;17.66;19.97;100414.81;5155592;27;20060;-66
2022/01/12 04:02:32;;;;;;;2.55;1.65;;;;;;;17.67;19.92;100418.31;5154310;27;20645;-66
2022/01/12 04:05:12;;;;;;;2.47;1.80;;;;;;;17.66;19.98;100428.19;5155427;27;20396;-65
2022/01/12 04:10:21;;;;;;;2.40;1.67;;;;;;;17.67;20.15;100427.19;5134419;27;20046;-66
2022/01/12 04:12:47;;;;;;;3.45;1.83;;;;;;;17.65;20.29;100418.47;5140493;27;20424;-66
2022/01/12 04:15:12;;;;;;;3.58;2.03;;;;;;;17.65;19.92;100422.97;5155660;27;20022;-67
2022/01/12 04:17:38;;;;;;;3.05;1.95;;;;;;;17.64;19.95;100415.94;5154979;27;20029;-66
2022/01/12 04:20:04;;;;;;;3.28;1.80;;;;;;;17.68;19.94;100422.66;5154847;27;20034;-66
2022/01/12 04:25:14;;;;;;;4.53;1.75;;;;;;;17.63;19.96;100427.63;5155110;27;20561;-67
2022/01/12 04:27:40;;;;;;;3.25;1.70;;;;;;;17.64;20.02;100424.81;5154472;27;20485;-66
2022/01/12 04:30:06;;;;;;;2.20;1.60;;;;;;;17.63;19.99;100420.44;5154838;27;20034;-68
2022/01/12 04:32:37;;;;;;;3.05;1.90;;;;;;;17.67;20.01;100424.53;5153950;27;20032;-67
2022/01/12 04:35:03;;;;;;;2.20;1.60;;;;;;;17.66;20.08;100427.31;5154651;27;20529;-67
2022/01/12 04:37:29;;;;;;;6.38;1.77;;;;;;;17.64;20.14;100422.13;5154767;27;20061;-66
2022/01/12 04:39:54;;;;;;;2.78;1.77;;;;;;;17.65;19.99;100423.81;5154764;27;20496;-67
2022/01/12 04:42:20;;;;;;;3.80;2.30;;;;;;;17.66;20.16;100430.00;5153685;27;20580;-67
2022/01/12 04:44:48;;;;;;;2.92;1.90;;;;;;;17.63;20.03;100420.44;5160649;27;20061;-67
2022/01/12 04:47:29;;;;;;;2.88;2.05;;;;;;;17.65;20.25;100420.28;5174615;27;20400;-67
2022/01/12 04:49:56;;;;;;;;;;;;;;;17.62;21.25;100426.78;5155132;27;20030;-67
2022/01/12 04:52:22;;;;;;;2.53;1.52;;;;;;;17.66;20.31;100427.31;5154391;27;20321;-66
2022/01/12 04:54:48;;;;;;;3.13;2.22;;;;;;;17.68;20.02;100426.22;5153763;27;20039;-66
2022/01/12 04:57:13;;;;;;;2.85;1.60;;;;;;;17.72;20.14;100420.56;5151744;27;20161;-66
2022/01/12 04:59:52;;;;;;;2.80;2.00;;;;;;;17.69;19.87;100419.88;5154494;27;20038;-67
2022/01/12 05:07:59;;;;;;;4.10;2.35;;;;;;;17.68;20.21;100415.50;5138168;27;20033;-66
2022/01/12 05:12:55;;;;;;;2.92;1.77;;;;;;;17.69;20.28;100430.56;5154278;27;20027;-66
2022/01/12 05:15:27;;;;;;;2.95;1.90;;;;;;;17.67;20.29;100431.69;5154011;27;20019;-67
2022/01/12 05:17:53;;;;;;;3.25;2.50;;;;;;;17.67;19.95;100426.34;5153718;27;20062;-67
2022/01/12 05:20:21;;;;;;;2.63;1.90;;;;;;;17.67;19.90;100420.97;5153883;27;20034;-67
2022/01/12 05:22:46;;;;;;;2.90;1.88;;;;;;;17.69;20.10;100425.22;5153332;27;20499;-66
2022/01/12 05:25:12;;;;;;;2.60;1.60;;;;;;;17.68;19.89;100420.84;5153515;27;20039;-67
2022/01/12 05:27:38;;;;;;;2.88;1.80;;;;;;;17.69;19.83;100422.53;5146047;27;20062;-67
2022/01/12 05:30:04;;;;;;;2.40;1.73;;;;;;;17.70;20.08;100431.41;5133483;28;20035;-67
2022/01/12 05:32:29;;;;;;;3.70;1.92;;;;;;;17.69;20.14;100419.88;5152592;27;20038;-67
2022/01/12 05:34:58;;;;;;;3.03;2.08;;;;;;;17.69;19.75;100427.91;5156006;27;20070;-67
2022/01/12 05:37:25;;;;;;;4.03;2.47;;;;;;;17.68;19.71;100420.84;5169207;27;20063;-67
2022/01/12 05:39:50;;;;;;;2.10;1.70;;;;;;;17.68;20.08;100426.22;5153810;27;20037;-67
2022/01/12 05:42:16;;;;;;;5.47;2.53;;;;;;;17.72;20.03;100431.28;5154105;27;20117;-67
2022/01/12 05:44:42;;;;;;;2.95;1.90;;;;;;;17.68;19.78;100426.22;5154001;27;20035;-66
2022/01/12 05:47:18;;;;;;;3.22;2.00;;;;;;;17.68;19.71;100422.66;5153745;27;20436;-65
2022/01/12 05:49:45;;;;;;;4.90;2.30;;;;;;;17.67;20.01;100415.63;5153664;27;20338;-68
2022/01/12 05:52:11;;;;;;;2.97;1.90;;;;;;;17.67;19.57;100421.84;5153315;27;20027;-67
2022/01/12 05:54:37;;;;;;;2.65;1.65;;;;;;;17.65;19.64;100420.28;5154303;27;20034;-67
2022/01/12 05:57:02;;;;;;;3.45;2.03;;;;;;;17.64;19.52;100413.28;5153281;27;20117;-68
2022/01/12 05:59:28;;;;;;;3.25;2.15;;;;;;;17.62;19.71;100409.88;5154084;27;20034;-66
2022/01/12 06:01:53;;;;;;;4.97;2.30;;;;;;;17.63;19.60;100415.09;5153496;27;20106;-67
2022/01/12 06:04:19;;;;;;;3.75;2.33;;;;;;;17.64;19.97;100422.13;5153704;27;20031;-66
2022/01/12 06:06:45;;;;;;;2.72;1.85;;;;;;;17.65;19.99;100421.13;5134861;27;20031;-67
2022/01/12 06:09:10;;;;;;;3.47;2.30;;;;;;;17.65;19.63;100423.81;5153043;27;20037;-67
2022/01/12 06:11:36;;;;;;;2.08;1.67;;;;;;;17.63;19.60;100417.75;5153311;27;20033;-66
2022/01/12 06:14:02;;;;;;;2.28;1.60;;;;;;;17.63;19.62;100420.44;5152476;27;20019;-66
2022/01/12 06:16:29;;;;;;;3.00;1.98;;;;;;;17.66;19.51;100422.81;5150253;27;20149;-66
2022/01/12 06:18:56;;;;;;;4.28;3.00;;;;;;;17.68;19.32;100431.56;5153292;27;20030;-66
2022/01/12 06:21:23;;;;;;;3.40;2.10;;;;;;;17.69;19.76;100427.91;5139417;27;20023;-66
2022/01/12 06:23:48;;;;;;;4.90;2.60;;;;;;;17.68;19.69;100431.56;5157048;27;20441;-65
2022/01/12 06:26:14;;;;;;;4.00;2.53;;;;;;;17.66;19.59;100408.59;5157521;27;20087;-67
2022/01/12 06:28:42;;;;;;;2.97;2.08;;;;;;;17.66;19.52;100408.59;5156019;27;20035;-66
2022/01/12 06:31:11;;;;;;;4.07;2.40;;;;;;;17.62;19.59;100418.75;5156946;27;20034;-67
2022/01/12 06:33:46;;;;;;;6.03;2.30;;;;;;;17.61;19.83;100427.75;5157147;27;20458;-67
2022/01/12 06:36:17;;;;;;;5.30;2.17;;;;;;;17.61;19.63;100417.06;5156887;27;20030;-66
2022/01/12 06:38:43;;;;;;;3.95;2.42;;;;;;;17.63;19.55;100424.97;5156817;27;20114;-67
2022/01/12 06:41:10;;;;;;;4.22;2.15;;;;;;;17.64;19.52;100429.31;5156581;27;20041;-66
2022/01/12 06:43:37;;;;;;;3.78;2.40;;;;;;;17.63;19.65;100428.47;5156801;27;20031;-66
2022/01/12 06:46:06;;;;;;;5.22;2.50;;;;;;;17.66;19.37;100430.00;5156761;27;20041;-67
2022/01/12 06:48:32;;;;;;;3.35;2.20;;;;;;;17.66;19.44;100430.84;5155824;27;20026;-64
2022/01/12 06:50:57;;;;;;;4.10;2.65;;;;;;;17.66;19.38;100425.50;5156822;27;20040;-67
2022/01/12 06:53:23;;;;;;;3.72;2.38;;;;;;;17.67;19.58;100432.53;5156855;27;20512;-67
2022/01/12 06:55:49;;;;;;;2.97;1.90;;;;;;;17.72;19.40;100434.78;5156740;27;20030;-66
2022/01/12 06:58:14;;;;;;;3.35;2.33;;;;;;;17.70;19.54;100426.06;5156346;27;20493;-65
2022/01/12 07:00:40;;;;;;;4.25;2.70;;;;;;;17.75;19.22;100430.97;5156344;27;20493;-67
2022/01/12 07:03:06;;;;;;;4.28;2.60;;;;;;;17.73;19.50;100422.22;5139737;27;20514;-66
2022/01/12 07:05:32;;;;;;;4.55;2.63;;;;;;;17.69;19.53;100427.91;5135399;27;20494;-65
2022/01/12 07:07:57;;;;;;;3.05;2.17;;;;;;;17.73;20.53;100431.13;5142654;27;20038;-66
2022/01/12 07:10:24;;;;;;;4.45;2.40;;;;;;;17.80;21.37;100431.38;5156386;27;20473;-65
2022/01/12 07:12:49;;;;;;;8.27;2.50;;;;;;;17.84;21.19;100436.28;5155972;27;20031;-66
2022/01/12 07:15:15;;;;;;;3.45;2.33;;;;;;;17.88;21.65;100441.34;5156423;27;20030;-70
2022/01/12 07:17:40;;;;;;;3.92;2.22;;;;;;;17.92;21.90;100442.75;5155551;27;20031;-67
2022/01/12 07:20:06;;;;;;;3.25;2.47;;;;;;;17.93;22.08;100436.41;5174075;27;20086;-66
2022/01/12 07:22:32;;;;;;;3.45;2.50;;;;;;;17.95;22.54;100437.09;5142613;27;20054;-66
2022/01/12 07:24:57;;;;;;;5.93;2.85;;;;;;;17.97;22.44;100437.78;5161873;27;20031;-66
2022/01/12 07:27:24;;;;;;;3.78;2.75;;;;;;;17.98;21.91;100436.81;5155764;27;20015;-67
2022/01/12 07:29:49;;;;;;;10.90;2.95;;;;;;;17.97;22.26;100444.03;5168252;27;20023;-67
2022/01/12 07:32:15;;;;;;;7.35;2.55;;;;;;;18.01;22.51;100446.44;5165620;27;20038;-65
2022/01/12 07:34:40;;;;;;;8.60;3.08;;;;;;;18.04;22.62;100443.44;5157602;27;20037;-66
2022/01/12 07:37:06;;;;;;;4.93;3.03;;;;;;;18.07;22.77;100448.50;5155827;27;20056;-65
2022/01/12 07:39:32;;;;;;;4.07;3.05;;;;;;;18.08;22.98;100436.78;5152600;27;20030;-68
2022/01/12 07:41:57;;;;;;;7.22;3.00;;;;;;;18.08;23.23;100434.97;5154740;27;20050;-67
2022/01/12 07:44:23;;;;;;;3.97;2.50;;;;;;;18.09;23.65;100430.44;5155523;27;20397;-66
2022/01/12 07:46:48;;;;;;;5.10;2.42;;;;;;;18.07;23.74;100424.38;5155943;27;20130;-67
2022/01/12 07:49:15;;;;;;;7.05;2.95;;;;;;;18.08;23.56;100426.94;5133456;27;20031;-66
2022/01/12 07:51:40;;;;;;;4.10;2.80;;;;;;;18.08;23.60;100418.91;5155619;27;20506;-66
2022/01/12 07:54:06;;;;;;;4.18;2.72;;;;;;;18.07;24.12;100429.75;5155256;27;20037;-67
2022/01/12 07:56:32;;;;;;;4.70;2.65;;;;;;;18.04;24.01;100424.69;5154762;27;20058;-66
2022/01/12 07:58:57;;;;;;;4.95;3.05;;;;;;;18.06;24.24;100423.56;5154167;27;20253;-66
2022/01/12 08:01:23;;;;;;;4.30;2.70;;;;;;;18.06;24.59;100418.22;5154826;27;20042;-66
2022/01/12 08:03:50;;;;;;;3.50;2.45;;;;;;;18.06;24.37;100418.22;5153234;27;20082;-66
2022/01/12 08:06:15;;;;;;;5.00;2.97;;;;;;;18.07;24.00;100422.56;5151799;27;20068;-66
2022/01/12 08:08:41;;;;;;;4.15;2.75;;;;;;;18.04;23.77;100422.88;5152608;27;20062;-68
2022/01/12 08:11:06;;;;;;;5.10;2.55;;;;;;;18.03;23.54;100415.81;5154559;27;20481;-66
2022/01/12 08:13:32;;;;;;;4.57;3.22;;;;;;;18.03;23.92;100418.50;5156006;27;20038;-67
2022/01/12 08:15:57;;;;;;;4.55;2.42;;;;;;;18.06;23.99;100407.50;5152216;27;20050;-66
2022/01/12 08:18:23;;;;;;;4.55;3.05;;;;;;;18.09;24.54;100406.34;5145278;27;20035;-66
2022/01/12 08:20:49;;;;;;;6.95;3.60;;;;;;;18.11;24.20;100401.69;5154755;27;20030;-67
2022/01/12 08:23:14;;;;;;;5.97;2.95;;;;;;;18.13;24.26;100397.84;5154147;27;20159;-67
2022/01/12 08:25:40;;;;;;;3.88;2.67;;;;;;;18.14;24.19;100399.53;5154307;27;20033;-65
2022/01/12 08:28:06;;;;;;;7.07;3.70;;;;;;;18.18;24.50;100396.56;5154049;27;20097;-66
2022/01/12 08:30:34;;;;;;;8.10;5.25;;;;;;;18.20;24.35;100402.63;5154577;27;20033;-65
2022/01/12 08:33:01;;;;;;;17.13;14.02;;;;;;;18.21;24.33;100394.44;5136044;27;20498;-65
2022/01/12 08:35:27;;;;;;;33.03;28.15;;;;;;;18.20;24.18;100397.28;5152270;27;20019;-67
2022/01/12 08:37:53;;;;;;;51.13;39.45;;;;;;;18.21;24.72;100399.78;5152912;27;20029;-72
2022/01/12 08:40:19;;;;;;;45.45;35.88;;;;;;;18.21;24.78;100399.78;5154792;27;20027;-68
2022/01/12 08:42:45;;;;;;;38.30;30.38;;;;;;;18.23;24.38;100399.66;5153838;27;20022;-68
2022/01/12 08:45:12;;;;;;;36.83;30.92;;;;;;;18.22;24.12;100404.16;5154419;27;20027;-68
2022/01/12 08:47:38;;;;;;;33.70;30.13;;;;;;;18.23;24.31;100403.16;5154450;27;20041;-67
2022/01/12 08:50:05;;;;;;;30.77;26.80;;;;;;;18.23;24.09;100397.81;5154677;27;20030;-68
2022/01/12 08:52:31;;;;;;;32.20;27.42;;;;;;;18.22;23.80;100397.97;5154292;27;20033;-68
2022/01/12 08:54:57;;;;;;;26.88;22.00;;;;;;;18.24;23.49;100396.81;5154388;27;20027;-68
2022/01/12 08:57:23;;;;;;;26.48;20.88;;;;;;;18.25;23.44;100387.78;5154419;27;20031;-69
2022/01/12 08:59:49;;;;;;;26.40;21.38;;;;;;;18.28;23.38;100387.50;5154832;27;20033;-68
2022/01/12 09:02:15;;;;;;;21.75;17.75;;;;;;;18.27;23.01;100383.13;5154087;27;20632;-68
2022/01/12 09:04:42;;;;;;;22.67;19.17;;;;;;;18.29;23.20;100377.63;5154136;27;20027;-68
2022/01/12 09:07:08;;;;;;;20.60;17.00;;;;;;;18.29;23.14;100389.19;5154263;27;20378;-68
2022/01/12 09:09:35;;;;;;;24.83;18.02;;;;;;;18.30;23.29;100387.34;5154159;27;20074;-69
2022/01/12 09:12:03;;;;;;;19.83;16.42;;;;;;;18.30;23.30;100384.66;5153676;27;20034;-69
2022/01/12 09:14:29;;;;;;;17.75;14.45;;;;;;;18.29;22.98;100382.97;5154081;27;20504;-69
2022/01/12 09:16:57;;;;;;;21.60;15.15;;;;;;;18.28;22.96;100382.13;5146482;27;20047;-69
2022/01/12 09:19:23;;;;;;;17.35;14.00;;;;;;;18.27;22.99;100374.22;5133239;27;20106;-69
2022/01/12 09:21:49;;;;;;;15.00;13.15;;;;;;;18.27;23.12;100364.38;5133520;27;20030;-68
2022/01/12 09:24:16;;;;;;;13.82;12.35;;;;;;;18.26;22.90;100359.16;5150156;27;20037;-68
2022/01/12 09:26:42;;;;;;;17.75;12.57;;;;;;;18.26;22.43;100354.66;5153687;27;20122;-68
2022/01/12 09:29:07;;;;;;;12.80;11.20;;;;;;;18.26;22.77;100354.66;5153630;27;20066;-69
2022/01/12 09:31:35;;;;;;;14.43;10.90;;;;;;;18.28;22.57;100352.69;5154241;27;20453;-69
2022/01/12 09:34:01;;;;;;;14.30;10.00;;;;;;;18.28;22.71;100344.63;5152667;27;20478;-69
2022/01/12 09:36:26;;;;;;;13.20;10.23;;;;;;;18.28;22.87;100357.16;5153796;27;20034;-69
2022/01/12 09:38:52;;;;;;;12.07;9.55;;;;;;;18.26;22.76;100349.31;5143935;27;20166;-69
2022/01/12 09:41:17;;;;;;;11.98;9.05;;;;;;;18.27;22.70;100352.81;5133429;28;20027;-69
2022/01/12 09:43:44;;;;;;;9.02;7.90;;;;;;;18.25;22.21;100342.25;5142813;27;20513;-69
2022/01/12 09:46:10;;;;;;;11.75;8.68;;;;;;;18.28;22.74;100346.47;5153264;27;20553;-69
2022/01/12 09:48:36;;;;;;;9.73;7.82;;;;;;;18.26;22.55;100341.25;5153055;27;20117;-68
2022/01/12 09:51:06;;;;;;;9.13;7.47;;;;;;;18.27;22.49;100342.94;5153714;27;20113;-69
2022/01/12 09:53:34;;;;;;;11.55;8.27;;;;;;;18.27;22.78;100340.28;5157128;27;20054;-69
2022/01/12 09:56:01;;;;;;;9.35;6.55;;;;;;;18.26;22.68;100332.38;5157917;27;20402;-69
2022/01/12 09:58:35;;;;;;;9.15;6.90;;;;;;;18.29;22.52;100327.56;5156506;27;20491;-69
2022/01/12 10:01:03;;;;;;;11.48;7.15;;;;;;;18.29;22.63;100314.19;5157650;27;20067;-69
2022/01/12 10:03:29;;;;;;;8.35;6.40;;;;;;;18.27;22.39;100313.47;5157390;27;20081;-68
2022/01/12 10:05:55;;;;;;;9.35;6.53;;;;;;;18.28;22.54;100317.84;5157426;27;20489;-69
2022/01/12 10:08:21;;;;;;;8.95;6.38;;;;;;;18.26;22.63;100319.84;5157154;27;20084;-70
2022/01/12 10:11:16;;;;;;;7.93;6.00;;;;;;;18.23;23.10;100317.44;5157390;27;20493;-69
2022/01/12 10:13:42;;;;;;;8.65;5.45;;;;;;;18.20;22.61;100309.72;5135668;27;20091;-68
2022/01/12 10:16:16;;;;;;;8.55;5.50;;;;;;;18.21;22.85;100314.06;5157799;27;20034;-70
2022/01/12 10:19:00;;;;;;;8.00;5.72;;;;;;;18.20;23.36;100312.38;5156450;27;20027;-69
2022/01/12 10:21:34;;;;;;;7.88;5.43;;;;;;;18.20;22.88;100312.38;5157187;27;20039;-68
2022/01/12 10:24:05;;;;;;;7.82;5.43;;;;;;;18.19;22.91;100318.75;5174281;27;20033;-69
2022/01/12 10:26:32;;;;;;;7.00;4.57;;;;;;;18.17;23.01;100307.34;5157124;27;20111;-69
2022/01/12 10:29:06;;;;;;;6.95;4.60;;;;;;;18.18;23.12;100311.69;5157392;27;20030;-69
2022/01/12 10:31:46;;;;;;;5.85;4.68;;;;;;;18.16;23.61;100302.97;5157382;27;20109;-71
2022/01/12 10:34:12;;;;;;;6.70;4.53;;;;;;;18.15;23.22;100309.34;5157425;27;20083;-69
2022/01/12 10:36:42;;;;;;;6.38;4.50;;;;;;;18.14;23.00;100299.63;5177707;27;20030;-69
2022/01/12 10:39:11;;;;;;;8.77;4.70;;;;;;;18.16;23.18;100300.28;5148388;27;20038;-68
2022/01/12 10:41:36;;;;;;;7.30;4.53;;;;;;;18.14;22.85;100288.91;5145545;27;20038;-68
2022/01/12 10:44:03;;;;;;;7.72;4.32;;;;;;;18.13;22.79;100287.22;5156268;27;20039;-69
2022/01/12 10:46:30;;;;;;;7.05;4.45;;;;;;;18.12;22.43;100294.41;5156884;27;20030;-68
2022/01/12 10:48:58;;;;;;;6.05;4.00;;;;;;;18.11;22.99;100300.75;5156379;27;20033;-69
2022/01/12 10:51:28;;;;;;;6.13;3.97;;;;;;;18.11;22.84;100299.91;5156284;27;20037;-68
2022/01/12 10:54:00;;;;;;;5.55;4.03;;;;;;;18.10;22.94;100301.75;5156317;27;20031;-69
2022/01/12 10:56:25;;;;;;;5.47;3.72;;;;;;;18.09;22.96;100307.25;5156433;27;20037;-69
2022/01/12 10:58:55;;;;;;;5.60;4.30;;;;;;;18.10;22.70;100300.91;5156181;27;20031;-69
2022/01/12 11:01:23;;;;;;;8.15;4.10;;;;;;;18.08;22.83;100286.81;5156740;27;20038;-70
2022/01/12 11:03:48;;;;;;;6.30;4.18;;;;;;;18.10;23.21;100291.03;5137182;27;20046;-70
2022/01/12 11:06:15;;;;;;;5.97;3.97;;;;;;;18.09;22.82;100283.97;5156619;27;20037;-70
2022/01/12 11:08:42;;;;;;;5.30;3.30;;;;;;;18.08;22.70;100282.31;5156288;27;20493;-70
2022/01/12 11:11:08;;;;;;;5.30;3.80;;;;;;;18.10;22.84;100276.81;5156313;27;20026;-69
2022/01/12 11:13:34;;;;;;;5.78;3.63;;;;;;;18.10;22.73;100274.97;5156063;27;20049;-69
2022/01/12 11:16:00;;;;;;;4.22;3.17;;;;;;;18.09;22.93;100269.75;5136141;27;20060;-68
2022/01/12 11:18:29;;;;;;;5.05;3.88;;;;;;;18.10;22.77;100255.38;5135317;27;20099;-68
2022/01/12 11:21:21;;;;;;;6.07;4.03;;;;;;;18.11;23.30;100267.78;5135223;27;20176;-69
2022/01/12 11:23:49;;;;;;;6.32;3.45;;;;;;;18.11;22.90;100254.41;5138823;27;20038;-68
2022/01/12 11:26:18;;;;;;;7.00;4.20;;;;;;;18.11;23.07;100257.06;5155659;27;20042;-68
2022/01/12 11:28:45;;;;;;;5.80;3.72;;;;;;;18.10;23.32;100247.34;5138638;27;20068;-68
2022/01/12 11:31:12;;;;;;;5.25;3.13;;;;;;;18.12;23.25;100253.41;5135128;27;20031;-68
2022/01/12 11:33:42;;;;;;;5.10;3.30;;;;;;;18.11;23.12;100246.34;5145501;27;20041;-69
2022/01/12 11:36:14;;;;;;;4.03;2.77;;;;;;;18.12;22.69;100245.38;5150742;27;20031;-68
2022/01/12 11:38:40;;;;;;;3.65;2.72;;;;;;;18.11;23.00;100246.34;5147688;27;20409;-68
2022/01/12 11:41:19;;;;;;;4.35;3.45;;;;;;;18.10;22.83;100240.16;5147402;27;20118;-67
2022/01/12 11:43:46;;;;;;;5.30;3.40;;;;;;;18.09;22.86;100243.81;5144828;27;20033;-69
2022/01/12 11:46:18;;;;;;;4.68;3.08;;;;;;;18.09;22.93;100248.34;5140802;27;20031;-68
2022/01/12 11:48:51;;;;;;;4.90;3.42;;;;;;;18.09;23.21;100246.50;5140718;27;20034;-68
2022/01/12 11:51:20;;;;;;;4.65;3.28;;;;;;;18.09;23.36;100246.50;5147867;27;20043;-68
2022/01/12 11:53:56;;;;;;;4.13;3.17;;;;;;;18.10;23.54;100247.34;5129037;27;20062;-69
2022/01/12 11:56:23;;;;;;;6.70;3.05;;;;;;;18.10;23.75;100255.38;5137178;27;20550;-69
2022/01/12 11:58:56;;;;;;;5.05;3.15;;;;;;;18.09;23.26;100251.84;5148282;27;20034;-70
2022/01/12 12:01:22;;;;;;;5.60;3.60;;;;;;;18.07;23.29;100251.19;5155160;27;20075;-70
2022/01/12 12:04:02;;;;;;;4.35;3.28;;;;;;;18.06;23.28;100245.97;5154269;27;20055;-68
2022/01/12 12:06:28;;;;;;;4.78;3.13;;;;;;;18.08;23.26;100246.66;5154731;27;20037;-68
2022/01/12 12:09:06;;;;;;;4.57;3.45;;;;;;;18.10;23.43;100248.19;5154317;27;20031;-68
2022/01/12 12:11:33;;;;;;;4.93;3.55;;;;;;;18.08;23.11;100235.94;5154749;27;20129;-69
2022/01/12 12:14:05;;;;;;;7.60;2.58;;;;;;;18.08;23.47;100236.81;5154396;27;20027;-68
2022/01/12 12:16:32;;;;;;;4.70;2.85;;;;;;;18.10;23.08;100226.75;5147999;27;20035;-69
2022/01/12 12:19:01;;;;;;;4.80;3.10;;;;;;;18.08;23.28;100226.09;5154530;27;20373;-69
2022/01/12 12:21:27;;;;;;;5.05;3.28;;;;;;;18.09;23.43;100216.22;5155156;27;20034;-69
2022/01/12 12:23:52;;;;;;;5.43;2.78;;;;;;;18.08;23.68;100215.38;5154823;27;20473;-67
2022/01/12 12:26:19;;;;;;;5.80;2.83;;;;;;;18.05;23.69;100204.97;5154882;27;20117;-68
2022/01/12 12:28:55;;;;;;;6.10;3.20;;;;;;;18.06;23.90;100195.94;5168095;27;20441;-69
2022/01/12 12:31:25;;;;;;;5.63;2.97;;;;;;;18.07;23.66;100197.63;5175793;27;20396;-69
2022/01/12 12:34:03;;;;;;;4.90;3.05;;;;;;;18.04;23.56;100187.22;5175412;27;20019;-70
2022/01/12 12:36:29;;;;;;;5.18;3.70;;;;;;;17.98;23.62;100175.28;5175778;27;20038;-67
2022/01/12 12:39:05;;;;;;;8.00;4.65;;;;;;;17.95;23.58;100178.22;5135721;27;20605;-67